Time;durP1;ratioP1;P1;durP2;ratioP2;P2;SDS_P1;SDS_P2;PMS_P1;PMS_P2;Temp;Humidity;BMP_temperature;BMP_pressure;BME280_temperature;BME280_humidity;BME280_pressure;Samples;Min_cycle;Max_cycle;Signal;HPM_P1;HPM_P2
2020/12/18 00:00:34;;;;;;;8.90;7.07;;;8.00;1.00;;;;;;4975758;28;20180;-63
2020/12/18 00:03:00;;;;;;;12.80;8.53;;;8.00;1.00;;;;;;4975701;28;20562;-64
2020/12/18 00:05:25;;;;;;;14.63;7.97;;;8.10;1.00;;;;;;4975234;28;20422;-61
2020/12/18 00:07:51;;;;;;;14.37;8.40;;;8.00;1.00;;;;;;4975493;28;20246;-60
2020/12/18 00:10:16;;;;;;;11.10;7.67;;;8.00;1.00;;;;;;4975435;28;20180;-61
2020/12/18 00:12:42;;;;;;;10.33;7.47;;;7.90;1.00;;;;;;4975319;28;20513;-63
2020/12/18 00:15:08;;;;;;;18.30;9.00;;;8.00;1.00;;;;;;4975132;28;20188;-61
2020/12/18 00:17:34;;;;;;;11.90;7.73;;;7.80;1.00;;;;;;4974201;28;20807;-61
2020/12/18 00:19:59;;;;;;;14.83;9.30;;;7.90;1.00;;;;;;4975284;28;20195;-61
2020/12/18 00:22:26;;;;;;;12.70;9.20;;;7.90;1.00;;;;;;4975283;28;20204;-62
2020/12/18 00:24:53;;;;;;;14.48;8.75;;;8.00;1.00;;;;;;4975066;28;20544;-62
2020/12/18 00:27:18;;;;;;;13.43;8.25;;;8.00;1.00;;;;;;4975131;28;20176;-62
2020/12/18 00:29:44;;;;;;;13.03;9.20;;;7.90;1.00;;;;;;4975134;28;20179;-63
2020/12/18 00:32:10;;;;;;;14.00;8.70;;;7.90;1.00;;;;;;4975061;28;20184;-62
2020/12/18 00:34:35;;;;;;;13.87;8.97;;;8.00;1.00;;;;;;4974895;28;20539;-62
2020/12/18 00:37:01;;;;;;;12.50;8.03;;;7.80;1.00;;;;;;4974923;28;20183;-62
2020/12/18 00:39:26;;;;;;;12.23;8.40;;;7.80;1.00;;;;;;4974960;28;20176;-62
2020/12/18 00:41:55;;;;;;;11.20;8.37;;;7.90;1.00;;;;;;4974305;28;20246;-62
2020/12/18 00:44:21;;;;;;;12.82;8.40;;;7.90;1.00;;;;;;4974606;28;20211;-62
2020/12/18 00:46:47;;;;;;;14.33;9.43;;;7.90;1.00;;;;;;4974939;28;20206;-62
2020/12/18 00:49:13;;;;;;;12.07;9.03;;;7.90;1.00;;;;;;4975164;28;20262;-62
2020/12/18 00:51:38;;;;;;;13.43;8.32;;;7.90;1.00;;;;;;4974810;28;20424;-60
2020/12/18 00:54:04;;;;;;;11.00;8.07;;;7.90;1.00;;;;;;4974648;28;20180;-59
2020/12/18 00:56:30;;;;;;;13.57;9.23;;;7.80;1.00;;;;;;4973904;28;20203;-60
2020/12/18 00:58:55;;;;;;;15.03;8.30;;;7.80;1.00;;;;;;4975010;28;20291;-59
2020/12/18 01:01:21;;;;;;;13.83;8.50;;;7.80;1.00;;;;;;4974856;28;20221;-60
2020/12/18 01:03:46;;;;;;;15.40;9.90;;;7.70;1.00;;;;;;4974610;28;20283;-59
2020/12/18 01:06:12;;;;;;;14.23;9.60;;;7.80;1.00;;;;;;4974726;28;20199;-60
2020/12/18 01:08:38;;;;;;;29.52;16.45;;;8.00;3.80;;;;;;4974785;28;20191;-61
2020/12/18 01:11:07;;;;;;;15.50;8.80;;;8.30;17.40;;;;;;4974756;28;20180;-61
2020/12/18 01:13:34;;;;;;;12.55;7.53;;;8.40;6.70;;;;;;4974334;28;20630;-61
2020/12/18 01:16:00;;;;;;;10.75;8.13;;;8.50;1.00;;;;;;4974786;28;20195;-62
2020/12/18 01:18:26;;;;;;;8.07;7.28;;;8.70;1.00;;;;;;4974661;28;20188;-62
2020/12/18 01:20:52;;;;;;;9.60;7.80;;;8.60;1.00;;;;;;4974610;28;20194;-61
2020/12/18 01:23:19;;;;;;;11.32;7.68;;;8.80;1.00;;;;;;4973301;28;20207;-59
2020/12/18 01:25:45;;;;;;;11.30;9.00;;;8.80;1.00;;;;;;4974574;28;20195;-63
2020/12/18 01:28:12;;;;;;;12.68;8.15;;;8.90;1.00;;;;;;4974599;28;20672;-62
2020/12/18 01:30:37;;;;;;;10.90;9.50;;;8.80;1.00;;;;;;4974514;28;20187;-62
2020/12/18 01:33:03;;;;;;;12.37;8.80;;;8.70;1.00;;;;;;4974402;28;20176;-62
2020/12/18 01:35:29;;;;;;;14.13;9.00;;;8.40;1.00;;;;;;4973379;28;20235;-61
2020/12/18 01:37:55;;;;;;;10.25;8.98;;;8.30;1.00;;;;;;4974487;28;20518;-63
2020/12/18 01:40:20;;;;;;;10.77;8.60;;;8.20;1.00;;;;;;4974632;28;20223;-61
2020/12/18 01:42:46;;;;;;;10.80;8.70;;;8.20;1.00;;;;;;4974569;28;20675;-59
2020/12/18 01:45:12;;;;;;;10.70;9.53;;;8.20;1.00;;;;;;4974203;28;20175;-61
2020/12/18 01:47:37;;;;;;;13.43;10.33;;;8.20;1.00;;;;;;4974512;28;20176;-63
2020/12/18 01:50:04;;;;;;;12.90;8.90;;;8.30;1.00;;;;;;4974476;28;20176;-63
2020/12/18 01:52:31;;;;;;;12.75;9.40;;;8.50;1.00;;;;;;4974389;28;20523;-61
2020/12/18 01:55:04;;;;;;;11.80;9.55;;;8.50;1.00;;;;;;4977665;28;20190;-61
2020/12/18 01:57:31;;;;;;;12.85;9.02;;;8.50;1.00;;;;;;4977944;28;20184;-62
2020/12/18 01:59:57;;;;;;;11.85;8.52;;;8.40;1.00;;;;;;4977826;28;20632;-62
2020/12/18 02:02:23;;;;;;;14.18;8.95;;;8.40;1.00;;;;;;4978025;28;20617;-61
2020/12/18 02:04:48;;;;;;;14.03;8.03;;;8.40;1.00;;;;;;4977793;28;20192;-62
2020/12/18 02:07:22;;;;;;;11.83;8.73;;;8.40;1.00;;;;;;4977932;28;20219;-63
2020/12/18 02:09:48;;;;;;;12.73;9.80;;;8.40;1.00;;;;;;4978263;28;20222;-63
2020/12/18 02:12:13;;;;;;;12.10;10.80;;;8.40;1.00;;;;;;4977730;28;20184;-63
2020/12/18 02:14:40;;;;;;;13.37;9.63;;;8.60;1.00;;;;;;4977438;28;20798;-63
2020/12/18 02:17:06;;;;;;;11.30;9.43;;;8.70;1.00;;;;;;4977678;28;20199;-65
2020/12/18 02:19:35;;;;;;;13.30;8.90;;;8.80;1.00;;;;;;4976480;28;20487;-60
2020/12/18 02:22:14;;;;;;;16.88;9.95;;;8.70;99.90;;;;;;4977532;28;20230;-60
2020/12/18 02:24:48;;;;;;;13.45;9.35;;;8.30;1.00;;;;;;4976206;28;20343;-60
2020/12/18 02:27:13;;;;;;;13.65;10.02;;;8.20;1.00;;;;;;4977774;28;20207;-60
2020/12/18 02:29:39;;;;;;;15.50;8.80;;;8.10;1.00;;;;;;4977228;28;20504;-64
2020/12/18 02:32:04;;;;;;;13.37;8.93;;;8.10;1.00;;;;;;4977112;28;20266;-64
2020/12/18 02:34:30;;;;;;;11.00;9.27;;;8.10;1.00;;;;;;4977008;28;20191;-64
2020/12/18 02:36:55;;;;;;;13.10;9.90;;;8.10;1.00;;;;;;4977233;28;20193;-64
2020/12/18 02:39:21;;;;;;;10.77;9.20;;;8.20;1.00;;;;;;4977148;28;20188;-64
2020/12/18 02:41:47;;;;;;;16.47;10.50;;;8.20;1.00;;;;;;4977163;28;20185;-64
2020/12/18 02:44:12;;;;;;;13.60;10.00;;;8.10;1.00;;;;;;4976694;28;20208;-64
2020/12/18 02:46:38;;;;;;;10.87;9.37;;;8.10;1.00;;;;;;4976950;28;20180;-62
2020/12/18 02:49:03;;;;;;;11.20;9.13;;;8.10;1.00;;;;;;4977014;28;20610;-60
2020/12/18 02:51:30;;;;;;;12.43;10.40;;;8.20;1.00;;;;;;4976975;28;20629;-60
2020/12/18 02:53:56;;;;;;;12.25;9.82;;;8.30;1.00;;;;;;4976954;28;20191;-61
2020/12/18 02:56:26;;;;;;;15.60;9.73;;;8.40;1.00;;;;;;4976935;28;20180;-61
2020/12/18 02:58:51;;;;;;;13.63;8.73;;;8.40;1.00;;;;;;4976771;28;20191;-60
2020/12/18 03:01:18;;;;;;;12.37;9.87;;;8.40;1.00;;;;;;4976810;28;20191;-61
2020/12/18 03:03:44;;;;;;;13.88;9.60;;;8.40;1.00;;;;;;4976544;28;20648;-60
2020/12/18 03:06:09;;;;;;;10.43;9.33;;;8.40;1.00;;;;;;4976160;28;20191;-61
2020/12/18 03:08:35;;;;;;;16.50;9.87;;;8.40;1.00;;;;;;4976784;28;20270;-64
2020/12/18 03:11:01;;;;;;;13.60;9.60;;;8.40;1.00;;;;;;4976614;28;20187;-64
2020/12/18 03:13:26;;;;;;;14.13;8.57;;;8.30;1.00;;;;;;4975383;28;20491;-61
2020/12/18 03:15:52;;;;;;;10.83;8.93;;;8.20;1.00;;;;;;4976446;28;20176;-64
2020/12/18 03:18:17;;;;;;;16.13;11.43;;;8.20;1.00;;;;;;4976566;28;20708;-62
2020/12/18 03:20:43;;;;;;;12.50;9.20;;;8.20;1.00;;;;;;4976534;28;20192;-64
2020/12/18 03:23:08;;;;;;;12.17;10.23;;;8.20;1.00;;;;;;4975083;28;20220;-62
2020/12/18 03:25:35;;;;;;;13.63;9.00;;;8.30;1.00;;;;;;4976341;28;20618;-64
2020/12/18 03:28:01;;;;;;;16.23;10.00;;;8.40;1.00;;;;;;4976289;28;20199;-64
2020/12/18 03:30:27;;;;;;;13.10;10.10;;;8.30;1.00;;;;;;4976274;28;20220;-62
2020/12/18 03:32:52;;;;;;;10.27;9.17;;;8.30;1.00;;;;;;4976154;28;20440;-62
2020/12/18 03:35:18;;;;;;;16.20;10.57;;;8.30;1.00;;;;;;4976011;28;20609;-62
2020/12/18 03:37:44;;;;;;;13.03;9.67;;;8.20;1.00;;;;;;4976212;28;20203;-62
2020/12/18 03:40:09;;;;;;;11.40;9.20;;;8.20;1.00;;;;;;4976138;28;20187;-61
2020/12/18 03:42:35;;;;;;;14.70;10.40;;;8.30;1.00;;;;;;4976039;28;20222;-60
2020/12/18 03:45:00;;;;;;;17.37;10.53;;;8.30;1.00;;;;;;4975747;28;20613;-60
2020/12/18 03:47:26;;;;;;;14.60;11.00;;;8.20;1.00;;;;;;4975960;28;20210;-60
2020/12/18 03:49:51;;;;;;;13.70;10.30;;;8.20;1.00;;;;;;4975827;28;20180;-60
2020/12/18 03:52:17;;;;;;;14.30;10.20;;;8.20;1.00;;;;;;4975848;28;20613;-60
2020/12/18 03:54:43;;;;;;;16.83;11.17;;;8.30;1.00;;;;;;4975547;28;20676;-62
2020/12/18 03:57:08;;;;;;;17.63;10.40;;;8.20;1.00;;;;;;4975767;28;20183;-64
2020/12/18 03:59:34;;;;;;;16.97;11.63;;;8.20;1.00;;;;;;4975769;28;20196;-61
2020/12/18 04:02:00;;;;;;;16.40;11.90;;;8.20;1.00;;;;;;4975778;28;20216;-62
2020/12/18 04:04:25;;;;;;;15.40;11.15;;;8.20;1.00;;;;;;4975410;28;20601;-62
2020/12/18 04:06:51;;;;;;;13.03;10.70;;;8.20;1.00;;;;;;4975456;28;20180;-61
2020/12/18 04:09:20;;;;;;;14.20;11.40;;;8.10;1.00;;;;;;4975286;28;20515;-61
2020/12/18 04:11:47;;;;;;;14.50;10.02;;;8.20;1.00;;;;;;4975460;28;20180;-62
2020/12/18 04:14:14;;;;;;;12.87;10.20;;;8.30;1.00;;;;;;4975503;28;20271;-62
2020/12/18 04:16:40;;;;;;;13.02;10.25;;;8.20;1.00;;;;;;4974968;28;20180;-60
2020/12/18 04:19:06;;;;;;;12.17;10.53;;;8.20;1.00;;;;;;4975618;28;20179;-61
2020/12/18 04:21:31;;;;;;;14.57;9.80;;;8.30;1.00;;;;;;4975413;28;20621;-61
2020/12/18 04:23:57;;;;;;;11.43;9.97;;;8.40;1.00;;;;;;4974998;28;20235;-61
2020/12/18 04:26:23;;;;;;;12.83;10.03;;;8.50;1.00;;;;;;4974207;28;20427;-60
2020/12/18 04:28:48;;;;;;;19.63;10.10;;;8.50;1.00;;;;;;4975134;28;20234;-62
2020/12/18 04:31:14;;;;;;;13.47;10.10;;;8.40;1.00;;;;;;4975223;28;20172;-60
2020/12/18 04:33:39;;;;;;;13.97;9.60;;;8.30;1.00;;;;;;4975303;28;20259;-62
2020/12/18 04:36:05;;;;;;;13.63;10.07;;;8.20;1.00;;;;;;4975160;28;20176;-62
2020/12/18 04:38:31;;;;;;;13.67;10.03;;;8.20;1.00;;;;;;4974094;28;20188;-62
2020/12/18 04:40:56;;;;;;;12.23;9.70;;;8.20;1.00;;;;;;4975193;28;20267;-62
2020/12/18 04:43:22;;;;;;;12.73;10.27;;;8.00;1.00;;;;;;4974816;28;20203;-62
2020/12/18 04:45:48;;;;;;;14.27;10.10;;;7.90;1.00;;;;;;4975060;28;20192;-62
2020/12/18 04:48:17;;;;;;;14.98;9.88;;;7.80;1.00;;;;;;4974994;28;20423;-62
2020/12/18 04:50:46;;;;;;;20.17;11.98;;;7.70;1.00;;;;;;4974965;28;20176;-62
2020/12/18 04:53:12;;;;;;;13.95;10.68;;;7.80;1.00;;;;;;4974468;28;20624;-62
2020/12/18 04:55:45;;;;;;;12.60;9.05;;;7.80;1.00;;;;;;4973744;28;20199;-62
2020/12/18 04:58:15;;;;;;;11.65;9.60;;;7.70;1.00;;;;;;4974812;28;20176;-62
2020/12/18 05:00:43;;;;;;;12.10;10.25;;;7.70;1.00;;;;;;4974704;28;20184;-62
2020/12/18 05:03:09;;;;;;;13.65;9.45;;;7.60;1.00;;;;;;4974420;28;20208;-62
2020/12/18 05:05:35;;;;;;;13.93;9.93;;;7.50;1.00;;;;;;4974771;28;20520;-62
2020/12/18 05:08:01;;;;;;;15.48;9.95;;;7.50;1.00;;;;;;4974710;28;20306;-60
2020/12/18 05:10:26;;;;;;;17.63;11.37;;;7.50;1.00;;;;;;4974712;28;20227;-60
2020/12/18 05:12:52;;;;;;;12.77;10.33;;;7.40;1.00;;;;;;4973666;28;20190;-60
2020/12/18 05:15:18;;;;;;;12.90;10.60;;;7.50;1.00;;;;;;4974417;28;20184;-60
2020/12/18 05:17:44;;;;;;;15.60;9.88;;;7.40;1.00;;;;;;4974673;28;20230;-61
2020/12/18 05:20:10;;;;;;;15.67;10.20;;;7.40;1.00;;;;;;4973754;28;20192;-60
2020/12/18 05:22:37;;;;;;;16.60;10.85;;;7.30;1.00;;;;;;4974408;28;20200;-60
2020/12/18 05:25:03;;;;;;;12.75;10.10;;;7.20;1.00;;;;;;4974558;28;20180;-60
2020/12/18 05:27:30;;;;;;;12.93;11.30;;;7.20;1.00;;;;;;4973700;28;20183;-59
2020/12/18 05:30:05;;;;;;;16.80;10.57;;;7.10;1.00;;;;;;4978273;28;20176;-60
2020/12/18 05:32:33;;;;;;;16.23;9.98;;;7.20;1.00;;;;;;4978482;28;20252;-60
2020/12/18 05:34:58;;;;;;;15.30;10.95;;;7.20;1.00;;;;;;4978038;28;20192;-60
2020/12/18 05:37:33;;;;;;;17.03;10.83;;;7.20;1.00;;;;;;4978341;28;20199;-60
2020/12/18 05:39:58;;;;;;;14.02;10.23;;;7.20;1.00;;;;;;4978409;28;20215;-60
2020/12/18 05:42:24;;;;;;;14.30;10.40;;;7.20;1.00;;;;;;4978203;28;20270;-60
2020/12/18 05:44:49;;;;;;;18.00;10.90;;;7.20;1.00;;;;;;4976961;28;20184;-60
2020/12/18 05:47:15;;;;;;;14.60;11.23;;;7.10;1.00;;;;;;4978172;28;20518;-60
2020/12/18 05:49:41;;;;;;;17.77;11.30;;;7.00;1.00;;;;;;4978099;28;20249;-61
2020/12/18 05:52:17;;;;;;;17.37;11.77;;;6.90;1.00;;;;;;4978107;28;20207;-61
2020/12/18 05:54:42;;;;;;;22.98;11.15;;;6.80;1.00;;;;;;4977864;28;20198;-61
2020/12/18 05:57:15;;;;;;;21.53;12.10;;;6.80;10.30;;;;;;4978084;28;20579;-61
2020/12/18 05:59:46;;;;;;;17.27;10.95;;;6.80;21.50;;;;;;4977837;28;20222;-62
2020/12/18 06:02:14;;;;;;;16.20;10.60;;;6.70;28.10;;;;;;4977872;28;20187;-62
2020/12/18 06:04:41;;;;;;;18.85;10.82;;;6.60;42.40;;;;;;4977569;28;20207;-61
2020/12/18 06:07:07;;;;;;;14.07;10.35;;;6.70;53.40;;;;;;4977838;28;20656;-61
2020/12/18 06:09:44;;;;;;;15.15;9.70;;;6.70;60.40;;;;;;4977965;28;20195;-61
2020/12/18 06:12:16;;;;;;;16.60;11.38;;;6.60;71.60;;;;;;4977775;28;20677;-61
2020/12/18 06:14:48;;;;;;;17.65;10.88;;;6.60;84.30;;;;;;4977454;28;20230;-61
2020/12/18 06:17:14;;;;;;;16.92;10.95;;;6.50;92.70;;;;;;4977359;28;20172;-61
2020/12/18 06:19:41;;;;;;;16.07;11.33;;;6.50;97.20;;;;;;4977464;28;20601;-61
2020/12/18 06:22:09;;;;;;;18.65;12.43;;;6.50;99.90;;;;;;4977369;28;20177;-61
2020/12/18 06:24:42;;;;;;;17.65;12.23;;;6.50;99.90;;;;;;4977075;28;20212;-61
2020/12/18 06:27:12;;;;;;;14.80;12.30;;;6.50;99.90;;;;;;4977354;28;20176;-61
2020/12/18 06:29:38;;;;;;;20.40;11.40;;;6.40;99.90;;;;;;4977328;28;20196;-63
2020/12/18 06:32:23;;;;;;;14.30;10.60;;;6.40;99.90;;;;;;4977367;28;20180;-64
2020/12/18 06:34:49;;;;;;;17.50;11.25;;;6.50;99.90;;;;;;4977105;28;20675;-64
2020/12/18 06:37:31;;;;;;;15.57;10.00;;;6.50;99.90;;;;;;4977310;28;20267;-64
2020/12/18 06:39:58;;;;;;;21.52;11.27;;;6.40;99.90;;;;;;4976185;28;20487;-64
2020/12/18 06:42:26;;;;;;;14.02;10.80;;;6.40;99.90;;;;;;4976019;28;20180;-62
2020/12/18 06:44:57;;;;;;;19.17;11.85;;;6.40;99.90;;;;;;4976859;28;20614;-62
2020/12/18 06:47:28;;;;;;;14.30;10.55;;;6.40;99.90;;;;;;4976102;28;20238;-62
2020/12/18 06:49:59;;;;;;;14.48;10.13;;;6.40;99.90;;;;;;4976995;28;20180;-62
2020/12/18 06:52:47;;;;;;;20.77;10.70;;;6.40;99.90;;;;;;4976952;28;20191;-62
2020/12/18 06:55:25;;;;;;;17.60;10.48;;;6.50;99.90;;;;;;4976722;28;20184;-62
2020/12/18 06:58:05;;;;;;;15.02;10.35;;;6.40;99.90;;;;;;4976792;28;20184;-62
2020/12/18 07:00:33;;;;;;;19.23;10.10;;;6.40;99.90;;;;;;4976613;28;20191;-63
2020/12/18 07:02:59;;;;;;;18.05;10.25;;;6.40;99.90;;;;;;4976556;28;20675;-62
2020/12/18 07:05:34;;;;;;;15.37;10.93;;;6.40;99.90;;;;;;4976291;28;20259;-62
2020/12/18 07:08:11;;;;;;;18.30;11.38;;;6.40;99.90;;;;;;4989223;28;20430;-62
2020/12/18 07:10:39;;;;;;;14.80;9.52;;;6.40;99.90;;;;;;4996061;28;20246;-62
2020/12/18 07:13:08;;;;;;;20.45;10.45;;;6.40;99.90;;;;;;4995730;28;20183;-62
2020/12/18 07:15:46;;;;;;;14.70;9.48;;;6.60;99.90;;;;;;4995945;28;20198;-62
2020/12/18 07:18:28;;;;;;;19.13;10.85;;;6.50;99.90;;;;;;4995900;28;20602;-62
2020/12/18 07:20:56;;;;;;;21.17;10.73;;;6.50;99.90;;;;;;4995803;28;20187;-62
2020/12/18 07:23:23;;;;;;;13.98;9.82;;;6.40;99.90;;;;;;4995325;28;20222;-62
2020/12/18 07:25:49;;;;;;;14.98;10.45;;;6.40;99.90;;;;;;4995824;28;20834;-62
2020/12/18 07:28:16;;;;;;;19.05;9.60;;;6.40;99.90;;;;;;4995667;28;20519;-62
2020/12/18 07:30:43;;;;;;;17.60;13.10;;;6.30;99.90;;;;;;4995735;28;20511;-63
2020/12/18 07:33:11;;;;;;;15.88;9.77;;;6.30;99.90;;;;;;4995444;28;20616;-62
2020/12/18 07:35:43;;;;;;;18.73;11.13;;;6.40;99.90;;;;;;4995684;28;20191;-62
2020/12/18 07:38:17;;;;;;;17.30;9.65;;;6.30;99.90;;;;;;4995527;28;20191;-64
2020/12/18 07:40:43;;;;;;;16.13;9.65;;;6.30;99.90;;;;;;4994517;28;20191;-61
2020/12/18 07:43:13;;;;;;;19.27;10.85;;;6.30;99.90;;;;;;4995396;28;20203;-64
2020/12/18 07:45:45;;;;;;;14.75;10.02;;;6.30;99.90;;;;;;4995549;28;20194;-64
2020/12/18 07:48:15;;;;;;;15.75;10.10;;;6.30;99.90;;;;;;4995330;28;20184;-64
2020/12/18 07:50:42;;;;;;;16.77;8.88;;;6.30;99.90;;;;;;4994159;28;20175;-64
2020/12/18 07:53:11;;;;;;;14.90;9.40;;;6.30;99.90;;;;;;4994951;28;20211;-64
2020/12/18 07:55:37;;;;;;;12.93;9.05;;;6.40;99.90;;;;;;4985159;28;20180;-66
2020/12/18 07:58:03;;;;;;;11.88;8.93;;;6.40;99.90;;;;;;4975422;28;20261;-67
2020/12/18 08:00:29;;;;;;;14.77;8.63;;;6.30;99.90;;;;;;4975645;28;20219;-66
2020/12/18 08:02:54;;;;;;;16.07;10.43;;;6.20;99.90;;;;;;4975795;28;20670;-67
2020/12/18 08:05:21;;;;;;;17.17;10.50;;;6.30;99.90;;;;;;4974766;28;20644;-66
2020/12/18 08:07:49;;;;;;;15.80;10.05;;;6.30;99.90;;;;;;4975400;28;20191;-66
2020/12/18 08:10:16;;;;;;;17.60;10.02;;;6.30;99.90;;;;;;4974173;28;20184;-66
2020/12/18 08:12:42;;;;;;;17.10;10.48;;;6.30;99.90;;;;;;4975373;28;20184;-66
2020/12/18 08:15:12;;;;;;;19.90;10.07;;;6.30;99.90;;;;;;4975326;28;20211;-66
2020/12/18 08:17:39;;;;;;;12.27;8.27;;;6.30;99.90;;;;;;4974994;28;20518;-65
2020/12/18 08:20:06;;;;;;;15.27;7.85;;;6.30;99.90;;;;;;4975217;28;20327;-66
2020/12/18 08:22:44;;;;;;;15.40;8.50;;;6.20;99.90;;;;;;4984037;28;20198;-66
2020/12/18 08:25:11;;;;;;;17.00;7.75;;;6.20;99.90;;;;;;4994601;28;20194;-65
2020/12/18 08:27:53;;;;;;;16.27;9.80;;;6.20;99.90;;;;;;4976800;28;20192;-66
2020/12/18 08:30:21;;;;;;;20.38;11.48;;;6.30;99.90;;;;;;4979561;28;20193;-66
2020/12/18 08:32:53;;;;;;;13.50;7.68;;;6.30;99.90;;;;;;4975837;28;20184;-63
2020/12/18 08:35:20;;;;;;;40.33;22.63;;;6.40;99.90;;;;;;4975294;28;20223;-65
2020/12/18 08:37:48;;;;;;;10.68;7.03;;;6.50;99.90;;;;;;4975115;28;20180;-66
2020/12/18 08:40:18;;;;;;;18.17;9.70;;;6.50;99.90;;;;;;4991480;28;20567;-67
2020/12/18 08:42:44;;;;;;;9.02;7.00;;;6.60;99.90;;;;;;4992361;28;20675;-61
2020/12/18 08:45:09;;;;;;;14.13;8.90;;;6.60;99.90;;;;;;4974444;28;20192;-61
2020/12/18 08:47:35;;;;;;;17.53;8.07;;;6.60;99.90;;;;;;4974903;28;20639;-64
2020/12/18 08:50:01;;;;;;;15.97;10.60;;;6.70;99.90;;;;;;4974732;28;20191;-64
2020/12/18 08:52:29;;;;;;;9.70;6.60;;;6.80;99.90;;;;;;4974591;28;20518;-64
2020/12/18 08:55:04;;;;;;;11.45;7.22;;;6.80;99.90;;;;;;4974039;28;20188;-64
2020/12/18 08:57:30;;;;;;;11.73;6.75;;;6.80;99.90;;;;;;4992799;28;20179;-66
2020/12/18 09:00:01;;;;;;;13.70;7.55;;;6.90;99.90;;;;;;4984180;28;20222;-65
2020/12/18 09:02:31;;;;;;;9.25;6.90;;;6.90;99.90;;;;;;4980507;28;20179;-64
2020/12/18 09:05:36;;;;;;;8.10;6.40;;;7.00;99.90;;;;;;4993905;28;20174;-62
2020/12/18 09:08:07;;;;;;;10.85;7.13;;;7.10;93.20;;;;;;4901332;29;20190;-63
2020/12/18 09:10:57;;;;;;;11.15;5.97;;;7.10;68.70;;;;;;4897622;29;20178;-66
2020/12/18 09:13:25;;;;;;;11.63;7.38;;;7.20;39.70;;;;;;4946189;28;20235;-63
2020/12/18 09:16:09;;;;;;;20.50;10.88;;;7.20;11.70;;;;;;4978340;28;20198;-62
2020/12/18 09:18:41;;;;;;;15.32;7.47;;;7.30;1.00;;;;;;4975375;28;20276;-60
2020/12/18 09:21:15;;;;;;;7.60;5.22;;;7.30;1.00;;;;;;4976499;28;20191;-62
2020/12/18 09:23:41;;;;;;;9.55;5.95;;;7.40;1.00;;;;;;4975563;28;20203;-61
2020/12/18 09:26:07;;;;;;;8.82;6.25;;;7.40;1.00;;;;;;4975184;28;20579;-63
2020/12/18 09:28:41;;;;;;;8.95;4.85;;;7.50;1.00;;;;;;4975423;28;20199;-61
2020/12/18 09:31:08;;;;;;;7.72;5.40;;;7.50;1.00;;;;;;4988881;28;20214;-62
2020/12/18 09:33:36;;;;;;;8.00;4.97;;;7.60;1.00;;;;;;4978746;28;20187;-62
2020/12/18 09:36:06;;;;;;;6.72;5.55;;;7.70;1.00;;;;;;4974303;28;20271;-61
2020/12/18 09:38:34;;;;;;;8.35;5.18;;;7.70;1.00;;;;;;4975950;28;20176;-61
2020/12/18 09:41:03;;;;;;;7.65;5.05;;;7.80;1.00;;;;;;4975573;28;20188;-61
2020/12/18 09:43:29;;;;;;;8.07;4.18;;;7.80;1.00;;;;;;4973922;28;20247;-61
2020/12/18 09:45:56;;;;;;;7.15;4.65;;;7.80;1.00;;;;;;4976980;28;20204;-61
2020/12/18 09:48:22;;;;;;;43.35;19.75;;;7.80;1.00;;;;;;4974865;28;20243;-61
2020/12/18 09:50:55;;;;;;;8.87;6.00;;;7.90;1.00;;;;;;4974967;28;20184;-61
2020/12/18 09:53:23;;;;;;;6.63;4.20;;;7.90;1.00;;;;;;4974047;28;20481;-62
2020/12/18 09:55:49;;;;;;;4.43;3.97;;;7.90;99.90;;;;;;4974333;28;20191;-62
2020/12/18 09:58:15;;;;;;;5.73;3.93;;;7.90;99.90;;;;;;4974583;28;20657;-62
2020/12/18 10:00:40;;;;;;;4.67;3.67;;;7.90;99.90;;;;;;4974034;28;20467;-61
2020/12/18 10:03:06;;;;;;;5.47;4.23;;;7.90;99.90;;;;;;4992577;28;20222;-63
2020/12/18 10:05:31;;;;;;;8.10;4.80;;;8.00;99.90;;;;;;4993832;28;20566;-61
2020/12/18 10:07:57;;;;;;;7.70;3.80;;;7.90;99.90;;;;;;4977047;28;20243;-60
2020/12/18 10:10:26;;;;;;;5.13;4.27;;;7.90;99.90;;;;;;4974353;28;20180;-61
2020/12/18 10:12:52;;;;;;;5.20;4.13;;;7.90;99.90;;;;;;4974048;28;20434;-60
2020/12/18 10:15:18;;;;;;;6.18;4.40;;;8.10;99.90;;;;;;4974803;28;20196;-61
2020/12/18 10:17:43;;;;;;;4.73;3.70;;;8.10;99.90;;;;;;4976532;28;20207;-61
2020/12/18 10:20:09;;;;;;;5.20;3.70;;;8.10;99.90;;;;;;4978048;28;20188;-61
2020/12/18 10:22:34;;;;;;;5.03;3.53;;;8.00;99.90;;;;;;4977625;28;20262;-63
2020/12/18 10:25:00;;;;;;;8.77;4.50;;;8.10;99.90;;;;;;4977676;28;20200;-63
2020/12/18 10:27:26;;;;;;;11.77;7.10;;;8.20;99.90;;;;;;4977916;28;20172;-60
2020/12/18 10:29:54;;;;;;;6.40;4.43;;;8.30;99.90;;;;;;4981759;28;20176;-61
2020/12/18 10:32:20;;;;;;;7.90;4.80;;;8.40;99.90;;;;;;4996949;28;20174;-62
2020/12/18 10:34:46;;;;;;;4.13;3.67;;;8.30;99.90;;;;;;4994286;28;20176;-61
2020/12/18 10:37:11;;;;;;;4.57;3.50;;;8.30;99.90;;;;;;4977068;28;20238;-61
2020/12/18 10:39:37;;;;;;;6.30;4.43;;;8.40;99.90;;;;;;4976395;28;20247;-61
2020/12/18 10:42:05;;;;;;;8.90;4.20;;;8.50;99.90;;;;;;4977427;28;20194;-61
2020/12/18 10:44:31;;;;;;;8.90;3.38;;;8.50;99.90;;;;;;4975798;28;20215;-62
2020/12/18 10:46:57;;;;;;;5.97;4.07;;;8.60;80.50;;;;;;4977495;28;20188;-64
2020/12/18 10:49:22;;;;;;;6.53;3.40;;;8.60;1.00;;;;;;4977080;28;20189;-65
2020/12/18 10:51:48;;;;;;;3.97;3.37;;;8.70;1.00;;;;;;4976072;28;20179;-64
2020/12/18 10:54:13;;;;;;;3.93;3.53;;;8.70;6.90;;;;;;4976895;28;20667;-62
2020/12/18 10:56:43;;;;;;;5.33;3.93;;;8.70;1.00;;;;;;4976245;28;20664;-62
2020/12/18 10:59:10;;;;;;;4.38;3.55;;;8.80;1.00;;;;;;4976930;28;20207;-62
2020/12/18 11:01:36;;;;;;;9.65;3.28;;;8.80;1.00;;;;;;4976619;28;20270;-62
2020/12/18 11:04:02;;;;;;;6.83;3.23;;;8.70;1.00;;;;;;4976456;28;20259;-60
2020/12/18 11:06:28;;;;;;;6.32;4.05;;;8.90;1.00;;;;;;4980309;28;20430;-62
2020/12/18 11:08:53;;;;;;;5.00;4.43;;;8.80;1.00;;;;;;4996352;28;20182;-62
2020/12/18 11:11:22;;;;;;;8.23;3.30;;;8.90;1.00;;;;;;4996155;28;20449;-62
2020/12/18 11:13:48;;;;;;;3.92;3.53;;;9.00;1.00;;;;;;4995805;28;20188;-62
2020/12/18 11:16:16;;;;;;;5.63;3.20;;;9.30;1.00;;;;;;4995135;28;20193;-65
2020/12/18 11:18:41;;;;;;;4.68;3.78;;;9.20;99.90;;;;;;4979703;28;20188;-65
2020/12/18 11:21:07;;;;;;;6.43;4.90;;;9.10;99.90;;;;;;4976955;28;20238;-65
2020/12/18 11:23:35;;;;;;;6.80;3.47;;;9.20;1.00;;;;;;4975872;28;20262;-65
2020/12/18 11:26:02;;;;;;;4.78;3.42;;;9.20;1.00;;;;;;4975851;28;20200;-65
2020/12/18 11:28:28;;;;;;;5.63;3.10;;;9.10;1.00;;;;;;4976025;28;20359;-64
2020/12/18 11:30:54;;;;;;;7.47;3.42;;;9.30;99.90;;;;;;4987248;28;20266;-64
2020/12/18 11:33:20;;;;;;;3.63;3.28;;;9.20;99.90;;;;;;4995063;28;20206;-64
2020/12/18 11:35:46;;;;;;;5.13;2.97;;;9.30;99.90;;;;;;4985270;28;20613;-64
2020/12/18 11:38:11;;;;;;;5.28;3.45;;;9.30;99.90;;;;;;4974855;28;20180;-64
2020/12/18 11:40:37;;;;;;;4.50;3.70;;;9.20;99.90;;;;;;4975682;28;20616;-64
2020/12/18 11:43:04;;;;;;;13.55;6.72;;;9.30;99.90;;;;;;4974498;28;20203;-64
2020/12/18 11:45:30;;;;;;;9.73;5.88;;;9.40;99.90;;;;;;4991205;28;20310;-64
2020/12/18 11:47:55;;;;;;;7.30;3.30;;;9.30;99.90;;;;;;4993522;28;20262;-64
2020/12/18 11:50:21;;;;;;;6.17;3.60;;;9.20;1.00;;;;;;4993457;28;20557;-64
2020/12/18 11:52:47;;;;;;;5.60;4.13;;;9.30;99.90;;;;;;4994889;28;20187;-63
2020/12/18 11:55:12;;;;;;;4.40;3.60;;;9.20;99.90;;;;;;4994806;28;20188;-64
2020/12/18 11:57:38;;;;;;;3.67;2.87;;;9.30;99.90;;;;;;4995068;28;20649;-64
2020/12/18 12:00:07;;;;;;;7.27;3.57;;;9.40;1.00;;;;;;4994952;28;20199;-64
2020/12/18 12:02:33;;;;;;;8.10;4.30;;;9.60;99.90;;;;;;4994728;28;20179;-63
2020/12/18 12:05:00;;;;;;;3.72;2.95;;;9.60;99.90;;;;;;4994273;28;20171;-62
2020/12/18 12:07:26;;;;;;;8.18;3.72;;;9.50;21.30;;;;;;4994558;28;20500;-62
2020/12/18 12:09:52;;;;;;;4.25;3.03;;;9.60;99.90;;;;;;4994794;28;20613;-63
2020/12/18 12:12:17;;;;;;;7.23;3.03;;;9.70;99.90;;;;;;4994850;28;20270;-62
2020/12/18 12:14:43;;;;;;;6.20;3.57;;;9.60;99.90;;;;;;4993545;28;20768;-62
2020/12/18 12:17:08;;;;;;;6.87;3.53;;;9.60;99.90;;;;;;4991464;28;20188;-63
2020/12/18 12:19:34;;;;;;;7.13;4.33;;;9.70;1.00;;;;;;4975624;28;20218;-63
2020/12/18 12:22:00;;;;;;;3.80;2.57;;;9.70;1.00;;;;;;4975757;28;20184;-63
2020/12/18 12:24:25;;;;;;;3.93;2.80;;;9.70;1.00;;;;;;4975356;28;20266;-62
2020/12/18 12:26:51;;;;;;;7.50;2.83;;;9.80;1.00;;;;;;4975491;28;20243;-63
2020/12/18 12:29:17;;;;;;;7.27;2.60;;;9.90;1.00;;;;;;4975705;28;20188;-61
2020/12/18 12:31:43;;;;;;;3.42;2.90;;;10.00;99.90;;;;;;4994166;28;20180;-64
2020/12/18 12:34:08;;;;;;;3.67;2.83;;;9.80;99.90;;;;;;4994836;28;20198;-64
2020/12/18 12:36:34;;;;;;;8.00;2.80;;;9.80;99.90;;;;;;4978212;28;20188;-63
2020/12/18 12:39:00;;;;;;;3.57;2.47;;;9.70;1.00;;;;;;4974825;28;20211;-64
2020/12/18 12:41:25;;;;;;;3.80;2.40;;;9.80;1.00;;;;;;4975088;28;20274;-64
2020/12/18 12:43:51;;;;;;;5.20;2.87;;;9.80;99.90;;;;;;4974910;28;20304;-64
2020/12/18 12:46:17;;;;;;;4.93;3.03;;;9.90;99.90;;;;;;4974638;28;20251;-64
2020/12/18 12:48:43;;;;;;;4.63;2.40;;;10.00;1.00;;;;;;4973840;28;20663;-64
2020/12/18 12:51:09;;;;;;;3.73;2.40;;;9.90;1.00;;;;;;4973700;28;20176;-64
2020/12/18 12:53:35;;;;;;;5.10;2.70;;;9.90;1.00;;;;;;4973405;28;20436;-64